CONSULTA PERSONALIZADA Alfaro
      Predicción AEMET      
Valores extremos - medios de hoy
Fecha T (C) P (l/m2) Hr (%) Rs (W/m2) VV (km/h) DV Tint.(C)
Max Med Min Acu Med Med Max Med Max Med Min
 23-10-2018   20,4   14,0   10,8   0,0   63   221   41,4   318   20,0   17,4   15,8 
Datos de hoy
Fecha T (C) P (l/m2) Hr (%) Rs (W/m2) VV (km/h) DV Tint.(C)
Max Med Min Acu Med Med Max Med Max Med Min
 23-10-2018 16:30:00   20,4   20,0   19,7   0,0   42   468   38,5   314   20,0   19,9   19,8 
 23-10-2018 16:15:00   20,1   19,9   19,6   0,0   42   504   36,7   310   19,8   19,7   19,5 
 23-10-2018 16:00:00   20,1   19,9   19,7   0,0   43   535   36,0   314   19,6   19,4   19,3 
 23-10-2018 15:45:00   20,0   19,7   19,4   0,0   43   565   32,4   316   19,3   19,2   19,0 
 23-10-2018 15:30:00   19,9   19,5   19,3   0,0   44   589   35,6   314   19,0   18,9   18,8 
 23-10-2018 15:15:00   19,7   19,4   19,1   0,0   44   608   28,8   319   18,8   18,6   18,5 
 23-10-2018 15:00:00   19,6   19,2   18,9   0,0   45   625   32,8   315   18,5   18,4   18,2 
 23-10-2018 14:45:00   19,3   19,0   18,7   0,0   46   638   37,4   320   18,2   18,1   18,0 
 23-10-2018 14:30:00   19,3   18,8   18,5   0,0   46   648   41,4   316   18,0   17,9   17,8 
 23-10-2018 14:15:00   18,7   18,5   18,1   0,0   46   655   39,6   319   17,8   17,6   17,5 
 23-10-2018 14:00:00   18,5   18,2   18,0   0,0   47   658   34,6   317   17,5   17,4   17,3 
 23-10-2018 13:45:00   18,7   18,2   17,8   0,0   47   657   35,3   319   17,3   17,2   17,1 
 23-10-2018 13:30:00   18,1   17,9   17,6   0,0   47   653   37,4   323   17,1   17,0   16,9 
 23-10-2018 13:15:00   17,9   17,6   17,3   0,0   47   644   30,2   321   16,9   16,8   16,8 
 23-10-2018 13:00:00   18,0   17,4   17,1   0,0   47   632   35,6   317   16,8   16,7   16,6 
 23-10-2018 12:45:00   17,4   17,2   16,9   0,0   48   616   32,4   320   16,6   16,5   16,5 
 23-10-2018 12:30:00   17,2   17,0   16,8   0,0   48   596   34,9   319   16,5   16,4   16,3 
 23-10-2018 12:15:00   16,9   16,7   16,5   0,0   49   574   32,8   322   16,4   16,3   16,3 
 23-10-2018 12:00:00   16,8   16,5   16,3   0,0   50   547   31,7   318   16,3   16,2   16,2 
 23-10-2018 11:45:00   16,3   16,2   16,0   0,0   51   516   32,4   330   16,2   16,1   16,1 
 23-10-2018 11:30:00   16,1   15,9   15,6   0,0   52   482   38,9   318   16,1   16,1   16,0 
 23-10-2018 11:15:00   15,6   15,5   15,2   0,0   55   446   39,2   321   16,1   16,0   16,0 
 23-10-2018 11:00:00   15,2   14,9   14,6   0,0   58   405   32,4   320   16,0   15,9   15,9 
 23-10-2018 10:45:00   14,6   14,4   14,1   0,0   61   361   26,3   322   15,9   15,9   15,9 
 23-10-2018 10:30:00   14,1   13,8   13,5   0,0   63   315   29,2   319   15,9   15,8   15,8 
 23-10-2018 10:15:00   13,5   13,2   12,9   0,0   66   265   26,3   320   15,9   15,9   15,8 
 23-10-2018 10:00:00   12,9   12,6   12,4   0,0   68   216   22,3   320   15,9   15,9   15,8 
 23-10-2018 09:45:00   12,5   12,2   11,9   0,0   70   168   20,5   322   16,0   15,9   15,9 
 23-10-2018 09:30:00   11,9   11,8   11,6   0,0   73   120   18,7   322   16,0   16,0   15,9 
 23-10-2018 09:15:00   11,7   11,5   11,4   0,0   74   77   19,8   321   16,1   16,1   16,0 
 23-10-2018 09:00:00   11,5   11,4   11,3   0,0   75   34   16,9   321   16,2   16,1   16,1 
 23-10-2018 08:45:00   11,3   11,2   11,0   0,0   76   10   17,6   321   16,3   16,2   16,1 
 23-10-2018 08:30:00   11,3   11,1   11,0   0,0   76   2   21,2   317   16,3   16,3   16,2 
 23-10-2018 08:15:00   11,3   11,2   10,9   0,0   76   0   22,7   316   16,3   16,3   16,2 
 23-10-2018 08:00:00   11,1   11,0   10,9   0,0   77   0   19,8   320   16,5   16,3   16,2 
 23-10-2018 07:45:00   11,0   10,9   10,8   0,0   77   0   19,1   320   16,6   16,5   16,5 
 23-10-2018 07:30:00   11,2   11,1   10,9   0,0   75   0   20,2   317   16,6   16,6   16,6 
 23-10-2018 07:15:00   11,4   11,2   11,0   0,0   75   0   24,5   317   16,6   16,6   16,5 
 23-10-2018 07:00:00   11,3   11,2   11,1   0,0   75   0   21,6   320   16,7   16,7   16,5 
 23-10-2018 06:45:00   11,4   11,3   11,1   0,0   74   0   23,0   321   16,8   16,7   16,6 
 23-10-2018 06:30:00   11,5   11,3   11,2   0,0   74   0   24,8   319   16,9   16,8   16,7 
 23-10-2018 06:15:00   11,5   11,4   11,3   0,0   73   0   22,7   321   17,0   16,9   16,8 
 23-10-2018 06:00:00   11,7   11,6   11,5   0,0   72   0   24,8   319   17,0   17,0   16,9 
 23-10-2018 05:45:00   11,7   11,6   11,5   0,0   71   0   23,0   320   17,1   17,0   16,9 
 23-10-2018 05:30:00   11,8   11,7   11,6   0,0   71   0   26,3   322   17,3   17,1   17,0 
 23-10-2018 05:15:00   11,8   11,7   11,6   0,0   71   0   21,2   321   17,3   17,3   17,3 
 23-10-2018 05:00:00   11,9   11,7   11,6   0,0   72   0   26,3   323   17,5   17,4   17,2 
 23-10-2018 04:45:00   11,7   11,6   11,5   0,0   72   0   22,0   323   17,8   17,6   17,5 
 23-10-2018 04:30:00   11,7   11,6   11,5   0,0   72   0   18,0   323   17,9   17,8   17,7 
 23-10-2018 04:15:00   11,8   11,7   11,6   0,0   72   0   20,5   319   18,0   17,9   17,9 
 23-10-2018 04:00:00   11,8   11,7   11,6   0,0   72   0   22,0   317   18,1   18,0   17,9 
 23-10-2018 03:45:00   12,0   11,8   11,6   0,0   71   0   22,7   317   18,1   18,1   18,0 
 23-10-2018 03:30:00   12,0   11,9   11,8   0,0   71   0   23,4   313   18,3   18,2   18,2 
 23-10-2018 03:15:00   12,0   11,9   11,8   0,0   71   0   20,5   319   18,4   18,4   18,3 
 23-10-2018 03:00:00   12,1   12,0   11,9   0,0   71   0   23,0   317   18,4   18,4   18,4 
 23-10-2018 02:45:00   12,2   12,1   12,0   0,0   71   0   26,3   314   18,5   18,5   18,4 
 23-10-2018 02:30:00   12,3   12,2   12,1   0,0   71   0   25,2   313   18,6   18,5   18,4 
 23-10-2018 02:15:00   12,4   12,3   12,2   0,0   71   0   30,6   314   18,6   18,5   18,4 
 23-10-2018 02:00:00   12,4   12,3   12,2   0,0   71   0   31,3   315   18,8   18,7   18,5 
 23-10-2018 01:45:00   12,5   12,4   12,3   0,0   71   0   32,0   312   18,8   18,8   18,7 
 23-10-2018 01:30:00   12,6   12,5   12,4   0,0   71   0   37,1   312   18,8   18,7   18,7 
 23-10-2018 01:15:00   12,5   12,5   12,4   0,0   70   0   34,2   315   18,9   18,8   18,6 
 23-10-2018 01:00:00   12,6   12,5   12,4   0,0   70   0   37,8   314   19,0   18,9   18,8 
 23-10-2018 00:45:00   12,7   12,6   12,5   0,0   69   0   36,7   315   18,9   18,8   18,8 
 23-10-2018 00:30:00   12,7   12,6   12,5   0,0   68   0   38,9   320   19,1   18,9   18,8 
 23-10-2018 00:15:00   12,7   12,7   12,6   0,0   68   0   37,1   317   19,2   19,1   19,0 
 23-10-2018 00:00:00   12,7   12,6   12,5   0,0   68   0   36,4   318   19,3   19,2   19,0 
Datos diarios
Fecha desde Fecha hasta       Visualizar         Exportar Excel  
     
Alfaro - Fecha desde: 16-10-2018 - Fecha hasta: 22-10-2018
Fecha T (C) P (l/m2) Hr (%) Rs (W/m2) VV (km/h) DV Tint.(C)
Max Med Min Acu Med Med Max Med Max Med Min
 22-10-2018   20,6   15,9   12,6   0,0   65   181   49,7   322   23,8   20,3   18,0 
 21-10-2018   22,9   16,9   11,8   0,0   78   164   27,4   234   25,0   22,0   18,8 
 20-10-2018   22,4   17,3   14,5   1,8   81   140   18,7   243   24,3   20,8   18,5 
 19-10-2018   21,0   17,8   15,7   0,7   72   52   31,7   298   21,4   20,1   18,9 
 18-10-2018   20,7   16,2   11,0   0,0   72   153   34,2   269   23,7   21,3   18,8 
 17-10-2018   21,7   15,5   10,3   0,0   72   181   19,1   231   24,7   21,7   18,3 
 16-10-2018   22,1   16,1   10,4   0,0   66   190   19,1   273   25,5   22,1   18,9 
Datos mensuales
        Exportar      
   
Alfaro
Fecha T (C) P (l/m2) Hr (%) Rs (W/m2) VV (km/h) DV Tint.(C)
Max Med Min Acu Med Med Max Med Max Med Min
 Octubre -2018   26,8   16,8   8,1   7,0   66   157   57,6   241   27,6   20,9   15,1 
 Septiembre-2018   32,4   21,2   10,9   27,8   63   236   51,5   226   33,9   27,1   18,7 
 Agosto -2018   36,5   23,4   13,1   0,9   58   293   52,6   242   38,8   29,5   21,3 
 Julio -2018   35,7   23,7   14,9   6,2   60   330   70,9   247   37,6   30,0   22,6 
 Junio -2018   33,5   20,2   11,3   32,9   63   300   69,1   236   36,1   25,2   16,4 
 Mayo -2018   26,2   15,4   4,5   37,3   67   280   59,8   245   28,7   20,2   11,3 
 Abril -2018   25,2   13,2   2,2   107,6   68   223   65,2   192   27,5   17,5   7,0 
 Marzo -2018   19,2   9,3   1,0   41,0   66   172   76,0   217   21,6   12,0   4,0 
 Febrero -2018   17,7   5,6   -2,9   19,7   73   111   64,8   279   24,1   12,9   3,0 
 Enero -2018   17,9   7,7   -3,0   52,2   79   90   56,9   259   23,9   16,8   10,7 
 Diciembre -2017   16,9   6,7   -2,3   10,4   77   76   72,0   259   22,4   15,6   9,3 
 Noviembre -2017   20,1   9,9   -0,7   4,2   67   105   63,4   258   22,4   16,0   8,6 
PARÁMETROS
Desc. Abr. Descripción
T Temperatura del aire
P Precipitación acumulada
Hr Humedad relativa del aire
Rs Radiación solar
VV Velocidad del viento
DV Dirección del viento
Tint Temperatura interior
 
FUNCIONES
Desc. Abr. Descripción
Max Máxima
Med Media
Min Mínima
Acu Acumulado